Terminal Aerodrome Forecast
Issued by NWS Aberdeen, SD

Home | Current Version | Previous Version | Text Only | Print | Product List | Glossary On
Versions: 1 2 3 4 5 6 7 8 9 10 11 12 13 14 15 16 17 18 19 20 21 22 23 24 25 26 27 28 29 30 31 32 33 34 35 36 37
000
FTAK31 PAFA 200041 AAA
TAFABR
TAF AMD
PABR 200041Z 2001/2024 07010KT 6SM -SN BR SCT015 BKN025
     FM200900 07008KT 5SM -SN BR SCT008 OVC020
     FM201400 09010KT 3SM BR SCT005 OVC012
     FM202100 08011KT 6SM BR BKN025=

USA.gov is the U.S. government's official web portal to all federal, state and local government web resources and services.